createdAt,value
2019-02-21T00:01:54.816Z,27.93
2019-02-21T00:04:45.204Z,31.00
2019-02-21T00:07:42.369Z,29.73
2019-02-21T00:10:44.312Z,28.13
2019-02-21T00:13:24.484Z,25.83
2019-02-21T00:16:24.385Z,25.00
2019-02-21T00:19:17.872Z,26.37
2019-02-21T00:22:16.337Z,29.53
2019-02-21T00:25:08.265Z,21.37
2019-02-21T00:27:57.221Z,27.90
2019-02-21T00:30:49.211Z,23.83
2019-02-21T00:33:40.804Z,26.97
2019-02-21T00:36:51.869Z,28.40
2019-02-21T00:39:43.188Z,25.97
2019-02-21T00:42:42.369Z,30.00
2019-02-21T00:45:36.348Z,26.97
2019-02-21T00:48:38.496Z,28.40
2019-02-21T00:51:42.869Z,26.70
2019-02-21T00:54:32.328Z,28.43
2019-02-21T00:57:23.019Z,28.10
2019-02-21T01:00:13.631Z,27.83
2019-02-21T01:03:19.392Z,30.63
2019-02-21T01:06:18.892Z,27.53
2019-02-21T01:09:11.432Z,28.40
2019-02-21T01:12:10.299Z,27.20
2019-02-21T01:15:05.015Z,27.30
2019-02-21T01:17:55.949Z,30.43
2019-02-21T01:20:56.076Z,27.97
2019-02-21T01:23:47.988Z,27.53
2019-02-21T01:26:43.503Z,29.43
2019-02-21T01:29:38.815Z,31.37
2019-02-21T01:32:32.933Z,27.07
2019-02-21T01:35:27.584Z,28.10
2019-02-21T01:38:34.593Z,27.20
2019-02-21T01:41:49.437Z,36.73
2019-02-21T01:44:52.017Z,28.47
2019-02-21T01:47:50.610Z,34.03
2019-02-21T01:50:46.866Z,26.40
2019-02-21T01:53:35.713Z,28.40
2019-02-21T01:56:26.836Z,26.17
2019-02-21T01:59:28.278Z,32.80
2019-02-21T02:02:18.677Z,30.07
2019-02-21T02:05:07.137Z,27.10
2019-02-21T02:08:02.424Z,26.77
2019-02-21T02:10:47.818Z,27.80
2019-02-21T02:13:45.457Z,24.33
2019-02-21T02:16:35.474Z,26.53
2019-02-21T02:19:29.329Z,21.63
2019-02-21T02:22:19.124Z,25.33
2019-02-21T02:25:10.241Z,27.53
2019-02-21T02:28:02.253Z,29.37
2019-02-21T02:30:51.645Z,26.90
2019-02-21T02:33:47.161Z,25.50
2019-02-21T02:36:39.083Z,30.67
2019-02-21T02:39:37.679Z,25.30
2019-02-21T02:42:26.230Z,29.07
2019-02-21T02:45:21.296Z,27.80
2019-02-21T02:48:15.918Z,30.33
2019-02-21T02:51:09.085Z,27.77
2019-02-21T02:53:58.461Z,26.77
2019-02-21T02:56:48.733Z,30.33
2019-02-21T02:59:49.258Z,27.03
2019-02-21T03:02:51.247Z,28.80
2019-02-21T03:05:39.698Z,27.07
2019-02-21T03:08:40.337Z,27.90
2019-02-21T03:11:32.655Z,25.37
2019-02-21T03:14:43.215Z,29.07
2019-02-21T03:17:35.154Z,27.03
2019-02-21T03:20:25.784Z,26.23
2019-02-21T03:23:15.962Z,25.97
2019-02-21T03:26:19.328Z,25.63
2019-02-21T03:29:09.646Z,28.43
2019-02-21T03:32:03.920Z,25.30
2019-02-21T03:34:54.442Z,27.03
2019-02-21T03:37:43.301Z,28.97
2019-02-21T03:40:54.053Z,28.60
2019-02-21T03:43:59.910Z,32.10
2019-02-21T03:46:53.990Z,27.27
2019-02-21T03:49:55.501Z,34.77
2019-02-21T03:52:47.284Z,31.67
2019-02-21T03:55:42.803Z,32.97
2019-02-21T03:58:36.265Z,28.73
2019-02-21T04:01:25.269Z,29.83
2019-02-21T04:04:22.248Z,30.20
2019-02-21T04:07:10.945Z,37.53
2019-02-21T04:10:01.506Z,30.23
2019-02-21T04:12:50.988Z,31.80
2019-02-21T04:15:50.402Z,30.30
2019-02-21T04:18:40.081Z,31.27
2019-02-21T04:21:38.780Z,29.07
2019-02-21T04:24:40.545Z,27.33
2019-02-21T04:27:31.968Z,28.67
2019-02-21T04:30:24.004Z,30.40
2019-02-21T04:33:14.601Z,28.23
2019-02-21T04:36:08.461Z,29.80
2019-02-21T04:38:57.033Z,37.53
2019-02-21T04:41:50.406Z,33.73
2019-02-21T04:44:47.348Z,27.77
2019-02-21T04:47:53.890Z,31.30
2019-02-21T04:50:43.960Z,30.60
2019-02-21T04:53:34.276Z,31.80
2019-02-21T04:56:23.968Z,30.33
2019-02-21T04:59:13.965Z,30.37
2019-02-21T05:02:11.409Z,33.93
2019-02-21T05:05:04.056Z,26.23
2019-02-21T05:07:55.697Z,26.87
2019-02-21T05:10:49.433Z,31.60
2019-02-21T05:13:40.443Z,28.37
2019-02-21T05:16:29.727Z,32.37
2019-02-21T05:19:22.669Z,33.17
2019-02-21T05:22:11.763Z,30.27
2019-02-21T05:25:06.830Z,32.43
2019-02-21T05:28:15.597Z,34.40
2019-02-21T05:31:22.869Z,31.77
2019-02-21T05:34:31.164Z,30.93
2019-02-21T05:37:27.133Z,29.23
2019-02-21T05:40:28.436Z,28.43
2019-02-21T05:43:22.428Z,26.03
2019-02-21T05:46:20.352Z,28.57
2019-02-21T05:49:16.829Z,27.03
2019-02-21T05:52:18.485Z,27.80
2019-02-21T05:55:23.897Z,24.10
2019-02-21T05:58:16.267Z,25.93
2019-02-21T06:01:38.092Z,28.03
2019-02-21T06:04:53.529Z,27.70
2019-02-21T06:08:06.370Z,32.10
2019-02-21T06:11:09.436Z,26.80
2019-02-21T06:14:22.182Z,26.43
2019-02-21T06:17:23.154Z,27.03
2019-02-21T06:20:33.768Z,26.80
2019-02-21T06:23:43.175Z,27.60
2019-02-21T06:26:50.235Z,31.47
2019-02-21T06:30:03.128Z,27.97
2019-02-21T06:32:51.157Z,30.17
2019-02-21T06:35:38.961Z,27.53
2019-02-21T06:38:26.607Z,30.47
2019-02-21T06:41:15.168Z,28.27
2019-02-21T06:44:02.711Z,31.77
2019-02-21T06:46:50.138Z,30.13
2019-02-21T06:49:37.815Z,33.13
2019-02-21T06:52:25.160Z,33.50
2019-02-21T06:55:14.355Z,32.17
2019-02-21T06:58:01.803Z,30.20
2019-02-21T07:00:49.514Z,31.37
2019-02-21T07:03:36.669Z,29.33
2019-02-21T07:06:31.505Z,27.57
2019-02-21T07:09:13.387Z,30.87
2019-02-21T07:12:07.178Z,30.37
2019-02-21T07:14:55.073Z,27.70
2019-02-21T07:17:49.220Z,28.27
2019-02-21T07:20:32.532Z,28.83
2019-02-21T07:23:20.062Z,27.13
2019-02-21T07:26:10.193Z,30.73
2019-02-21T07:28:58.357Z,29.00
2019-02-21T07:31:46.240Z,28.63
2019-02-21T07:34:34.063Z,31.87
2019-02-21T07:37:22.045Z,32.53
2019-02-21T07:40:19.528Z,35.77
2019-02-21T07:42:58.936Z,34.33
2019-02-21T07:45:46.578Z,31.23
2019-02-21T07:48:36.363Z,28.27
2019-02-21T07:51:23.362Z,31.50
2019-02-21T07:54:10.861Z,28.50
2019-02-21T07:57:01.979Z,29.93
2019-02-21T07:59:50.237Z,27.57
2019-02-21T08:02:38.420Z,26.97
2019-02-21T08:05:26.238Z,27.73
2019-02-21T08:08:14.353Z,24.47
2019-02-21T08:11:02.500Z,27.40
2019-02-21T08:13:50.876Z,28.57
2019-02-21T08:16:38.885Z,27.40
2019-02-21T08:19:26.618Z,31.23
2019-02-21T08:22:14.607Z,24.37
2019-02-21T08:25:01.879Z,27.23
2019-02-21T08:27:49.824Z,24.40
2019-02-21T08:30:37.088Z,24.00
2019-02-21T08:33:31.219Z,24.47
2019-02-21T08:36:18.602Z,23.30
2019-02-21T08:39:08.817Z,22.40
2019-02-21T08:41:56.738Z,24.07
2019-02-21T08:44:44.310Z,20.47
2019-02-21T08:47:31.879Z,24.20
2019-02-21T08:50:22.112Z,23.53
2019-02-21T08:53:08.303Z,20.77
2019-02-21T08:55:56.093Z,23.93
2019-02-21T08:58:43.843Z,22.83
2019-02-21T09:01:31.310Z,23.70
2019-02-21T09:04:27.385Z,23.00
2019-02-21T09:07:07.681Z,23.77
2019-02-21T09:09:55.097Z,24.63
2019-02-21T09:12:47.902Z,19.40
2019-02-21T09:15:32.875Z,24.00
2019-02-21T09:18:20.199Z,22.60
2019-02-21T09:21:07.566Z,20.07
2019-02-21T09:23:56.684Z,22.03
2019-02-21T09:26:44.459Z,22.03
2019-02-21T09:29:31.773Z,23.40
2019-02-21T09:32:19.391Z,24.73
2019-02-21T09:35:07.448Z,22.37
2019-02-21T09:37:55.408Z,22.27
2019-02-21T09:40:42.866Z,23.33
2019-02-21T09:43:30.762Z,24.23
2019-02-21T09:46:18.833Z,27.03
2019-02-21T09:49:06.416Z,22.40
2019-02-21T09:51:54.244Z,22.87
2019-02-21T09:54:41.942Z,24.80
2019-02-21T09:57:29.767Z,23.67
2019-02-21T10:00:18.838Z,21.73
2019-02-21T10:03:06.470Z,23.03
2019-02-21T10:05:53.936Z,25.27
2019-02-21T10:08:41.754Z,21.20
2019-02-21T10:11:29.430Z,21.77
2019-02-21T10:14:17.110Z,24.60
2019-02-21T10:17:07.782Z,22.50
2019-02-21T10:19:55.351Z,20.43
2019-02-21T10:22:43.069Z,22.23
2019-02-21T10:25:31.289Z,22.93
2019-02-21T10:28:18.697Z,23.97
2019-02-21T10:31:06.279Z,19.70
2019-02-21T10:33:53.923Z,21.93
2019-02-21T10:36:41.939Z,22.83
2019-02-21T10:39:29.438Z,22.17
2019-02-21T10:42:16.891Z,19.73
2019-02-21T10:45:05.012Z,20.80
2019-02-21T10:47:53.095Z,20.00
2019-02-21T10:50:41.262Z,22.93
2019-02-21T10:53:48.041Z,19.90
2019-02-21T10:56:36.199Z,18.37
2019-02-21T10:59:24.101Z,20.03
2019-02-21T11:02:12.053Z,21.27
2019-02-21T11:04:59.857Z,22.03
2019-02-21T11:07:48.120Z,21.30
2019-02-21T11:10:35.418Z,22.73
2019-02-21T11:13:23.118Z,18.57
2019-02-21T11:16:11.232Z,21.07
2019-02-21T11:18:59.706Z,17.97
2019-02-21T11:21:46.931Z,19.07
2019-02-21T11:24:34.309Z,17.90
2019-02-21T11:27:21.832Z,18.87
2019-02-21T11:30:13.240Z,19.27
2019-02-21T11:33:00.690Z,17.10
2019-02-21T11:35:48.232Z,16.97
2019-02-21T11:38:35.454Z,20.83
2019-02-21T11:41:22.958Z,18.83
2019-02-21T11:44:10.373Z,17.87
2019-02-21T11:46:58.043Z,18.40
2019-02-21T11:49:45.941Z,16.67
2019-02-21T11:52:33.409Z,18.97
2019-02-21T11:55:21.652Z,16.77
2019-02-21T11:58:10.123Z,18.53
2019-02-21T12:00:57.729Z,15.53
2019-02-21T12:03:45.589Z,22.13
2019-02-21T12:06:32.781Z,14.60
2019-02-21T12:09:20.241Z,14.23
2019-02-21T12:12:10.298Z,15.27
2019-02-21T12:14:57.483Z,18.70
2019-02-21T12:17:44.950Z,13.50
2019-02-21T12:20:32.458Z,17.07
2019-02-21T12:23:20.213Z,14.13
2019-02-21T12:26:08.158Z,16.37
2019-02-21T12:28:55.982Z,14.27
2019-02-21T12:31:43.431Z,17.20
2019-02-21T12:34:30.865Z,13.47
2019-02-21T12:37:18.274Z,11.70
2019-02-21T12:40:06.210Z,13.93
2019-02-21T12:42:54.093Z,13.67
2019-02-21T12:45:41.989Z,12.57
2019-02-21T12:48:29.449Z,15.30
2019-02-21T12:51:17.283Z,14.03
2019-02-21T12:54:05.406Z,13.90
2019-02-21T12:56:53.552Z,12.27
2019-02-21T12:59:41.478Z,14.77
2019-02-21T13:02:28.911Z,14.17
2019-02-21T13:05:16.613Z,13.77
2019-02-21T13:08:04.808Z,14.13
2019-02-21T13:10:52.738Z,12.97
2019-02-21T13:13:40.915Z,16.10
2019-02-21T13:16:29.350Z,13.83
2019-02-21T13:19:17.051Z,11.57
2019-02-21T13:22:04.425Z,13.53
2019-02-21T13:24:52.411Z,16.57
2019-02-21T13:27:40.068Z,17.27
2019-02-21T13:30:27.815Z,13.80
2019-02-21T13:33:16.583Z,13.37
2019-02-21T13:36:05.484Z,17.37
2019-02-21T13:38:53.232Z,15.77
2019-02-21T13:41:40.868Z,18.27
2019-02-21T13:44:29.077Z,17.57
2019-02-21T13:47:16.429Z,15.40
2019-02-21T13:50:04.546Z,14.23
2019-02-21T13:52:52.533Z,14.17
2019-02-21T13:55:39.960Z,16.70
2019-02-21T13:58:28.784Z,17.73
2019-02-21T14:01:16.803Z,14.97
2019-02-21T14:04:04.484Z,15.93
2019-02-21T14:06:52.169Z,15.63
2019-02-21T14:09:39.779Z,15.83
2019-02-21T14:12:27.722Z,19.40
2019-02-21T14:15:16.763Z,16.97
2019-02-21T14:18:04.348Z,16.63
2019-02-21T14:20:51.587Z,18.03
2019-02-21T14:23:39.044Z,17.83
2019-02-21T14:26:28.818Z,16.23
2019-02-21T14:29:17.189Z,18.37
2019-02-21T14:32:05.514Z,16.90
2019-02-21T14:34:53.396Z,21.33
2019-02-21T14:37:41.079Z,18.57
2019-02-21T14:40:29.280Z,22.17
2019-02-21T14:43:17.149Z,20.57
2019-02-21T14:46:05.067Z,20.60
2019-02-21T14:48:52.522Z,19.40
2019-02-21T14:51:40.104Z,27.10
2019-02-21T14:54:28.046Z,20.40
2019-02-21T14:57:15.656Z,22.10
2019-02-21T15:00:03.103Z,26.93
2019-02-21T15:02:50.881Z,22.90
2019-02-21T15:05:38.693Z,27.10
2019-02-21T15:08:30.184Z,22.27
2019-02-21T15:11:17.974Z,22.00
2019-02-21T15:14:05.683Z,25.47
2019-02-21T15:16:53.284Z,29.07
2019-02-21T15:19:41.753Z,25.13
2019-02-21T15:25:09.175Z,25.30
2019-02-21T15:27:56.949Z,28.53
2019-02-21T15:30:44.723Z,26.17
2019-02-21T15:33:31.936Z,25.23
2019-02-21T15:36:19.160Z,23.67
2019-02-21T15:39:08.706Z,22.67
2019-02-21T15:41:56.145Z,23.83
2019-02-21T15:44:46.296Z,20.37
2019-02-21T15:47:34.154Z,22.03
2019-02-21T15:50:21.726Z,22.87
2019-02-21T15:53:09.145Z,20.97
2019-02-21T15:55:56.837Z,21.27
2019-02-21T15:58:45.293Z,27.23
2019-02-21T16:01:32.592Z,23.20
2019-02-21T16:04:20.217Z,19.23
2019-02-21T16:07:08.146Z,21.57
2019-02-21T16:09:55.926Z,25.43
2019-02-21T16:12:43.554Z,21.03
2019-02-21T16:15:31.339Z,20.50
2019-02-21T16:18:18.821Z,23.43
2019-02-21T16:21:06.541Z,22.13
2019-02-21T16:23:54.357Z,21.47
2019-02-21T16:26:42.411Z,19.17
2019-02-21T16:29:30.117Z,20.60
2019-02-21T16:32:17.166Z,19.47
2019-02-21T16:35:05.124Z,17.87
2019-02-21T16:37:52.833Z,22.77
2019-02-21T16:40:41.284Z,24.07
2019-02-21T16:43:33.809Z,22.47
2019-02-21T16:46:27.183Z,17.70
2019-02-21T16:49:18.093Z,24.10
2019-02-21T16:52:16.480Z,17.87
2019-02-21T16:55:08.855Z,22.90
2019-02-21T16:57:56.951Z,19.00
2019-02-21T17:00:54.727Z,27.07
2019-02-21T17:03:40.793Z,25.77
2019-02-21T17:06:40.112Z,20.63
2019-02-21T17:09:28.696Z,19.83
2019-02-21T17:12:24.705Z,19.00
2019-02-21T17:15:41.521Z,25.97
2019-02-21T17:18:41.133Z,19.13
2019-02-21T17:21:49.009Z,22.17
2019-02-21T17:24:46.686Z,21.37
2019-02-21T17:27:54.496Z,19.63
2019-02-21T17:30:47.755Z,21.00
2019-02-21T17:33:41.744Z,24.87
2019-02-21T17:36:33.594Z,22.17
2019-02-21T17:39:22.215Z,21.93
2019-02-21T17:42:20.917Z,23.17
2019-02-21T17:45:09.985Z,20.13
2019-02-21T17:47:58.319Z,22.40
2019-02-21T17:50:46.239Z,20.57
2019-02-21T17:53:34.498Z,23.37
2019-02-21T17:56:23.881Z,21.80
2019-02-21T17:59:13.181Z,23.70
2019-02-21T18:02:04.760Z,22.73
2019-02-21T18:04:53.203Z,21.07
2019-02-21T18:07:40.765Z,20.93
2019-02-21T18:10:36.057Z,26.90
2019-02-21T18:13:25.638Z,26.03
2019-02-21T18:16:13.753Z,24.80
2019-02-21T18:19:05.576Z,27.17
2019-02-21T18:21:54.965Z,24.30
2019-02-21T18:24:45.781Z,20.57
2019-02-21T18:27:36.376Z,25.90
2019-02-21T18:30:34.874Z,34.43
2019-02-21T18:33:25.788Z,29.63
2019-02-21T18:36:16.048Z,37.73
2019-02-21T18:39:05.541Z,30.13
2019-02-21T18:42:01.447Z,42.50
2019-02-21T18:45:12.939Z,32.67
2019-02-21T18:48:01.203Z,36.27
2019-02-21T18:50:49.938Z,40.43
2019-02-21T18:53:40.557Z,30.40
2019-02-21T18:56:30.940Z,29.30
2019-02-21T18:59:31.781Z,26.20
2019-02-21T19:02:14.404Z,30.97
2019-02-21T19:05:03.263Z,36.00
2019-02-21T19:08:03.362Z,44.50
2019-02-21T19:10:45.191Z,39.87
2019-02-21T19:13:34.122Z,30.40
2019-02-21T19:16:23.080Z,28.13
2019-02-21T19:19:11.195Z,24.87
2019-02-21T19:21:59.696Z,26.07
2019-02-21T19:24:47.628Z,24.93
2019-02-21T19:27:37.524Z,27.17
2019-02-21T19:30:32.309Z,27.90
2019-02-21T19:33:21.885Z,35.00
2019-02-21T19:36:10.315Z,32.60
2019-02-21T19:38:58.681Z,30.73
2019-02-21T19:41:48.724Z,29.47
2019-02-21T19:44:37.216Z,30.03
2019-02-21T19:47:25.749Z,32.57
2019-02-21T19:50:14.321Z,23.97
2019-02-21T19:53:02.353Z,26.33
2019-02-21T19:55:50.025Z,28.33
2019-02-21T19:58:37.976Z,29.07
2019-02-21T20:01:25.792Z,29.90
2019-02-21T20:04:13.249Z,32.93
2019-02-21T20:07:00.726Z,32.00
2019-02-21T20:09:49.454Z,29.57
2019-02-21T20:12:37.569Z,33.27
2019-02-21T20:15:25.224Z,30.73
2019-02-21T20:18:13.599Z,30.37
2019-02-21T20:21:01.214Z,31.10
2019-02-21T20:23:49.276Z,37.40
2019-02-21T20:26:37.458Z,39.33
2019-02-21T20:29:25.244Z,37.80
2019-02-21T20:32:13.050Z,36.90
2019-02-21T20:35:00.698Z,43.03
2019-02-21T20:37:47.896Z,31.10
2019-02-21T20:40:35.251Z,33.83
2019-02-21T20:43:22.892Z,47.07
2019-02-21T20:46:10.337Z,42.90
2019-02-21T20:48:58.270Z,38.00
2019-02-21T20:51:46.113Z,36.07
2019-02-21T20:54:34.081Z,39.20
2019-02-21T20:57:21.159Z,38.03
2019-02-21T21:00:10.411Z,33.93
2019-02-21T21:02:57.932Z,36.57
2019-02-21T21:05:45.938Z,35.17
2019-02-21T21:08:42.754Z,35.67
2019-02-21T21:11:23.452Z,35.63
2019-02-21T21:14:11.856Z,30.30
2019-02-21T21:16:59.393Z,38.87
2019-02-21T21:19:46.568Z,36.53
2019-02-21T21:22:33.991Z,38.57
2019-02-21T21:25:21.956Z,34.63
2019-02-21T21:28:09.850Z,33.70
2019-02-21T21:30:57.372Z,37.20
2019-02-21T21:33:45.902Z,32.90
2019-02-21T21:36:33.478Z,33.47
2019-02-21T21:39:21.450Z,32.73
2019-02-21T21:42:08.882Z,34.20
2019-02-21T21:44:56.516Z,37.10
2019-02-21T21:47:44.599Z,36.57
2019-02-21T21:50:32.362Z,30.47
2019-02-21T21:53:20.249Z,32.70
2019-02-21T21:56:07.725Z,29.37
2019-02-21T21:58:55.165Z,35.23
2019-02-21T22:01:42.550Z,32.70
2019-02-21T22:04:30.054Z,27.03
2019-02-21T22:07:17.701Z,28.00
2019-02-21T22:10:07.215Z,29.77
2019-02-21T22:12:55.019Z,30.43
2019-02-21T22:15:43.105Z,35.40
2019-02-21T22:18:30.613Z,37.63
2019-02-21T22:21:18.350Z,27.53
2019-02-21T22:24:06.090Z,32.57
2019-02-21T22:26:53.868Z,31.97
2019-02-21T22:29:41.393Z,27.53
2019-02-21T22:32:29.639Z,31.60
2019-02-21T22:35:19.109Z,25.63
2019-02-21T22:38:06.217Z,29.93
2019-02-21T22:40:53.319Z,33.30
2019-02-21T22:43:40.889Z,26.77
2019-02-21T22:46:28.722Z,32.57
2019-02-21T22:49:16.708Z,29.70
2019-02-21T22:52:04.466Z,26.90
2019-02-21T22:54:52.185Z,26.13
2019-02-21T22:57:39.639Z,30.63
2019-02-21T23:01:06.366Z,27.77
2019-02-21T23:04:18.906Z,25.97
2019-02-21T23:07:37.473Z,27.53
2019-02-21T23:10:24.795Z,25.67
2019-02-21T23:13:12.473Z,25.47
2019-02-21T23:16:00.467Z,26.57
2019-02-21T23:18:48.026Z,26.87
2019-02-21T23:21:35.719Z,28.03
2019-02-21T23:24:23.342Z,30.40
2019-02-21T23:27:10.824Z,28.90
2019-02-21T23:29:57.966Z,31.00
2019-02-21T23:32:45.286Z,24.23
2019-02-21T23:35:33.369Z,44.10
2019-02-21T23:38:21.140Z,51.87
2019-02-21T23:41:08.511Z,45.67
2019-02-21T23:43:56.185Z,31.53
2019-02-21T23:46:43.526Z,32.60
2019-02-21T23:49:30.906Z,30.50
2019-02-21T23:52:17.992Z,28.63
2019-02-21T23:55:06.260Z,30.77
2019-02-21T23:57:53.990Z,24.23
